Time;durP1;ratioP1;P1;durP2;ratioP2;P2;SDS_P1;SDS_P2;PMS_P1;PMS_P2;Temp;Humidity;BMP_temperature;BMP_pressure;BME280_temperature;BME280_humidity;BME280_pressure;Samples;Min_cycle;Max_cycle;Signal;HPM_P1;HPM_P2
2021/09/29 00:01:56;;;;;;;8.00;4.63;;;13.40;96.90;;;;;;5041270;28;20033;-64
2021/09/29 00:04:22;;;;;;;8.13;4.13;;;13.30;96.90;;;;;;5040710;28;20018;-64
2021/09/29 00:06:47;;;;;;;9.60;3.97;;;13.30;97.00;;;;;;5043834;28;20474;-64
2021/09/29 00:09:13;;;;;;;9.23;4.97;;;13.30;97.00;;;;;;5038571;28;20021;-64
2021/09/29 00:11:38;;;;;;;7.47;4.53;;;13.30;97.00;;;;;;5036831;28;20025;-64
2021/09/29 00:14:04;;;;;;;7.72;4.82;;;13.30;97.00;;;;;;5043803;28;20484;-64
2021/09/29 00:16:30;;;;;;;7.60;4.45;;;13.30;97.00;;;;;;5041251;28;20029;-64
2021/09/29 00:18:55;;;;;;;10.25;4.78;;;13.20;97.10;;;;;;5037692;28;20025;-64
2021/09/29 00:21:21;;;;;;;9.07;5.68;;;13.30;97.10;;;;;;5034774;28;20076;-64
2021/09/29 00:23:47;;;;;;;11.05;4.97;;;13.30;97.00;;;;;;5043989;28;20023;-64
2021/09/29 00:26:13;;;;;;;10.35;5.13;;;13.20;97.00;;;;;;5039476;28;20020;-64
2021/09/29 00:28:39;;;;;;;12.65;4.78;;;13.30;97.00;;;;;;5040049;28;20020;-64
2021/09/29 00:31:05;;;;;;;9.35;5.50;;;13.20;97.00;;;;;;5042644;28;20021;-64
2021/09/29 00:33:34;;;;;;;9.70;5.15;;;13.20;97.00;;;;;;5038744;28;20099;-64
2021/09/29 00:36:00;;;;;;;9.68;6.22;;;13.30;97.00;;;;;;5036767;28;20024;-64
2021/09/29 00:38:25;;;;;;;8.77;5.20;;;13.20;97.10;;;;;;5034822;28;20543;-64
2021/09/29 00:40:51;;;;;;;12.07;5.32;;;13.20;97.10;;;;;;5055344;28;20022;-64
2021/09/29 00:43:17;;;;;;;8.35;5.55;;;13.30;97.10;;;;;;5038494;28;20025;-64
2021/09/29 00:45:42;;;;;;;10.05;5.20;;;13.20;97.00;;;;;;5038675;28;20483;-64
2021/09/29 00:48:08;;;;;;;11.32;5.00;;;13.20;97.00;;;;;;5041552;28;20469;-64
2021/09/29 00:50:36;;;;;;;9.77;5.75;;;13.20;97.00;;;;;;5045224;28;20071;-64
2021/09/29 00:53:03;;;;;;;9.73;5.63;;;13.20;97.00;;;;;;5040792;28;20051;-64
2021/09/29 00:55:29;;;;;;;8.98;5.72;;;13.20;97.00;;;;;;5035824;28;20025;-64
2021/09/29 00:57:54;;;;;;;7.90;4.70;;;13.20;97.00;;;;;;5048582;28;20027;-64
2021/09/29 01:00:20;;;;;;;12.15;5.63;;;13.20;97.00;;;;;;5043230;28;20021;-64
2021/09/29 01:02:46;;;;;;;9.60;5.78;;;13.10;97.00;;;;;;5036028;28;20064;-64
2021/09/29 01:05:12;;;;;;;10.20;5.22;;;13.10;97.10;;;;;;5060031;28;20017;-64
2021/09/29 01:08:00;;;;;;;9.27;5.32;;;13.10;97.10;;;;;;5037475;28;20524;-64
2021/09/29 01:10:44;;;;;;;10.18;5.60;;;13.10;97.10;;;;;;5032831;28;20105;-64
2021/09/29 01:13:15;;;;;;;7.72;5.18;;;13.10;97.20;;;;;;5035516;28;20017;-64
2021/09/29 01:15:57;;;;;;;8.07;5.53;;;13.00;97.30;;;;;;5035491;28;20100;-64
2021/09/29 01:18:24;;;;;;;9.02;5.22;;;13.00;97.30;;;;;;5032851;28;20057;-63
2021/09/29 01:20:57;;;;;;;10.32;5.85;;;12.90;97.30;;;;;;5048051;28;20026;-64
2021/09/29 01:23:49;;;;;;;10.40;5.82;;;12.90;97.30;;;;;;5046167;28;20028;-64
2021/09/29 01:26:16;;;;;;;9.27;5.93;;;12.90;97.30;;;;;;5031780;28;20049;-64
2021/09/29 01:28:51;;;;;;;10.45;5.93;;;12.80;97.40;;;;;;5032537;28;20029;-64
2021/09/29 01:31:19;;;;;;;9.45;5.57;;;12.80;97.40;;;;;;5045789;28;20017;-64
2021/09/29 01:33:45;;;;;;;11.75;6.18;;;12.80;97.50;;;;;;5035218;28;20021;-64
2021/09/29 01:36:11;;;;;;;12.77;6.38;;;12.80;97.50;;;;;;5037417;28;20469;-64
2021/09/29 01:38:41;;;;;;;7.15;5.85;;;12.80;97.50;;;;;;5035294;28;20013;-64
2021/09/29 01:41:07;;;;;;;7.25;5.25;;;12.80;97.50;;;;;;5040248;28;20041;-64
2021/09/29 01:43:33;;;;;;;8.90;5.75;;;12.80;97.50;;;;;;5032389;28;20400;-64
2021/09/29 01:45:59;;;;;;;9.63;5.32;;;12.80;97.50;;;;;;5032404;28;20481;-64
2021/09/29 01:48:25;;;;;;;14.40;6.13;;;12.80;97.50;;;;;;5037658;28;20049;-64
2021/09/29 01:50:55;;;;;;;8.82;6.50;;;12.70;97.50;;;;;;5044158;28;20048;-64
2021/09/29 01:53:23;;;;;;;8.65;6.22;;;12.70;97.50;;;;;;5040014;28;20021;-64
2021/09/29 01:55:50;;;;;;;8.75;5.82;;;12.70;97.60;;;;;;5044579;28;20079;-64
2021/09/29 01:58:16;;;;;;;9.80;6.38;;;12.70;97.60;;;;;;5032087;28;20112;-64
2021/09/29 02:00:42;;;;;;;9.95;5.45;;;12.70;97.60;;;;;;5034613;28;20044;-64
2021/09/29 02:03:08;;;;;;;8.45;6.03;;;12.60;97.60;;;;;;5040065;28;20033;-64
2021/09/29 02:05:35;;;;;;;8.50;5.25;;;12.70;97.70;;;;;;5035088;28;20017;-64
2021/09/29 02:08:04;;;;;;;9.02;5.68;;;12.60;97.70;;;;;;5030477;28;20025;-64
2021/09/29 02:10:30;;;;;;;8.30;5.90;;;12.60;97.70;;;;;;5034754;28;20024;-63
2021/09/29 02:12:55;;;;;;;9.95;6.50;;;12.60;97.70;;;;;;5038783;28;20016;-64
2021/09/29 02:15:21;;;;;;;14.60;7.78;;;12.60;97.70;;;;;;5033205;28;20028;-64
2021/09/29 02:17:48;;;;;;;12.02;6.38;;;12.60;97.80;;;;;;5035956;28;20497;-64
2021/09/29 02:20:14;;;;;;;12.23;5.85;;;12.60;97.80;;;;;;5038663;28;20392;-63
2021/09/29 02:22:40;;;;;;;10.63;5.93;;;12.60;97.70;;;;;;5036003;28;20021;-64
2021/09/29 02:25:07;;;;;;;9.32;6.22;;;12.60;97.70;;;;;;5034709;28;20049;-64
2021/09/29 02:27:33;;;;;;;11.90;6.50;;;12.60;97.80;;;;;;5048841;28;20016;-64
2021/09/29 02:29:59;;;;;;;13.98;6.45;;;12.50;97.80;;;;;;5046747;28;20032;-64
2021/09/29 02:32:24;;;;;;;13.15;6.95;;;12.50;97.90;;;;;;5043079;28;20049;-64
2021/09/29 02:34:50;;;;;;;10.18;6.47;;;12.50;97.90;;;;;;5051911;28;20053;-64
2021/09/29 02:37:15;;;;;;;11.93;6.55;;;12.50;98.00;;;;;;5039066;28;20022;-64
2021/09/29 02:39:41;;;;;;;7.82;5.80;;;12.50;98.10;;;;;;5038595;28;20100;-64
2021/09/29 02:42:06;;;;;;;11.93;6.72;;;12.50;98.10;;;;;;5036186;28;20050;-64
2021/09/29 02:44:33;;;;;;;9.27;6.15;;;12.50;98.10;;;;;;5048839;28;20049;-64
2021/09/29 02:46:59;;;;;;;9.32;6.05;;;12.50;98.20;;;;;;5036047;28;20022;-63
2021/09/29 02:49:24;;;;;;;10.52;6.20;;;12.50;98.20;;;;;;5042831;28;20017;-63
2021/09/29 02:51:50;;;;;;;11.68;7.00;;;12.50;98.20;;;;;;5040811;28;20485;-64
2021/09/29 02:54:15;;;;;;;10.32;5.60;;;12.50;98.20;;;;;;5040208;28;20029;-64
2021/09/29 02:56:41;;;;;;;10.98;6.13;;;12.50;98.20;;;;;;5045926;28;20022;-64
2021/09/29 02:59:09;;;;;;;14.52;6.68;;;12.50;98.20;;;;;;5039907;28;20399;-63
2021/09/29 03:01:39;;;;;;;12.95;6.88;;;12.50;98.30;;;;;;5048607;28;20028;-64
2021/09/29 03:04:05;;;;;;;11.95;6.30;;;12.50;98.30;;;;;;5035828;28;20554;-64
2021/09/29 03:06:31;;;;;;;9.13;6.32;;;12.50;98.30;;;;;;5040677;28;20021;-64
2021/09/29 03:08:56;;;;;;;12.32;7.00;;;12.50;98.30;;;;;;5034739;28;20505;-64
2021/09/29 03:11:22;;;;;;;10.05;6.07;;;12.50;98.30;;;;;;5050569;28;20020;-64
2021/09/29 03:13:48;;;;;;;9.10;5.88;;;12.60;98.30;;;;;;5045604;28;20025;-64
2021/09/29 03:16:14;;;;;;;9.25;5.65;;;12.60;98.20;;;;;;5042541;28;20024;-63
2021/09/29 03:18:40;;;;;;;9.85;6.22;;;12.60;98.10;;;;;;5040333;28;20018;-63
2021/09/29 03:21:06;;;;;;;8.47;5.83;;;12.60;98.10;;;;;;5040704;28;20033;-64
2021/09/29 03:23:32;;;;;;;11.10;7.25;;;12.60;98.10;;;;;;5033752;28;20533;-63
2021/09/29 03:25:57;;;;;;;8.88;6.50;;;12.60;98.10;;;;;;5038205;28;20100;-64
2021/09/29 03:28:23;;;;;;;7.38;5.72;;;12.70;98.20;;;;;;5040801;28;20053;-64
2021/09/29 03:30:48;;;;;;;11.32;6.38;;;12.70;98.10;;;;;;5046207;28;20540;-64
2021/09/29 03:33:14;;;;;;;14.68;6.45;;;12.70;98.10;;;;;;5044649;28;20039;-64
2021/09/29 03:35:39;;;;;;;10.05;6.15;;;12.70;98.10;;;;;;5038795;28;20090;-64
2021/09/29 03:38:05;;;;;;;9.57;6.13;;;12.80;98.10;;;;;;5044007;28;20092;-64
2021/09/29 03:40:31;;;;;;;10.50;6.55;;;12.80;98.10;;;;;;5035264;28;20026;-63
2021/09/29 03:42:57;;;;;;;10.20;5.75;;;12.80;98.00;;;;;;5043284;28;20061;-64
2021/09/29 03:45:22;;;;;;;10.98;6.32;;;12.80;98.00;;;;;;5043874;28;20482;-64
2021/09/29 03:47:48;;;;;;;9.93;5.82;;;12.80;98.00;;;;;;5040855;28;20033;-63
2021/09/29 03:50:13;;;;;;;8.10;5.80;;;12.80;98.00;;;;;;5038642;28;20528;-63
2021/09/29 03:52:40;;;;;;;11.63;6.53;;;12.90;98.10;;;;;;5042489;28;20111;-64
2021/09/29 03:55:07;;;;;;;10.43;6.30;;;12.90;98.10;;;;;;5040104;28;20033;-63
2021/09/29 03:57:34;;;;;;;7.90;5.80;;;12.90;98.00;;;;;;5055578;28;20025;-64
2021/09/29 04:00:00;;;;;;;8.25;5.55;;;12.90;98.00;;;;;;5045166;28;20057;-63
2021/09/29 04:02:26;;;;;;;10.63;5.60;;;12.90;98.00;;;;;;5049854;28;20024;-63
2021/09/29 04:04:52;;;;;;;7.90;4.95;;;12.90;98.00;;;;;;5046909;28;20017;-63
2021/09/29 04:07:17;;;;;;;13.70;5.40;;;12.90;98.00;;;;;;5042663;28;20101;-63
2021/09/29 04:09:46;;;;;;;8.07;5.63;;;13.00;97.90;;;;;;5043717;28;20025;-63
2021/09/29 04:12:12;;;;;;;9.10;5.22;;;12.90;97.80;;;;;;5042783;28;20017;-64
2021/09/29 04:14:37;;;;;;;8.13;5.55;;;13.00;97.70;;;;;;5039254;28;20386;-63
2021/09/29 04:17:03;;;;;;;10.60;5.60;;;13.00;97.70;;;;;;5041482;28;20496;-64
2021/09/29 04:19:29;;;;;;;7.53;4.50;;;13.00;97.70;;;;;;5037939;28;20535;-63
2021/09/29 04:21:54;;;;;;;7.55;4.55;;;13.00;97.70;;;;;;5039117;28;20033;-64
2021/09/29 04:24:20;;;;;;;8.07;4.75;;;13.00;97.70;;;;;;5044690;28;20018;-63
2021/09/29 04:26:45;;;;;;;7.70;4.80;;;13.00;97.70;;;;;;5041422;28;20025;-63
2021/09/29 04:29:11;;;;;;;10.43;4.68;;;13.10;97.50;;;;;;5048547;28;20013;-64
2021/09/29 04:31:36;;;;;;;5.72;3.90;;;13.10;97.40;;;;;;5044235;28;20029;-64
2021/09/29 04:34:03;;;;;;;7.57;3.90;;;13.10;97.40;;;;;;5041222;28;20026;-64
2021/09/29 04:36:28;;;;;;;7.35;3.83;;;13.10;97.40;;;;;;5043435;28;20033;-64
2021/09/29 04:38:54;;;;;;;6.57;3.85;;;13.20;97.20;;;;;;5042479;28;20083;-63
2021/09/29 04:41:19;;;;;;;7.30;3.38;;;13.20;97.30;;;;;;5038315;28;20025;-63
2021/09/29 04:43:45;;;;;;;10.48;4.28;;;13.20;97.30;;;;;;5043912;28;20124;-64
2021/09/29 04:46:10;;;;;;;10.52;3.95;;;13.20;97.20;;;;;;5046518;28;20023;-63
2021/09/29 04:48:36;;;;;;;8.70;3.50;;;13.20;97.20;;;;;;5042165;28;20091;-63
2021/09/29 04:51:02;;;;;;;7.35;3.35;;;13.20;97.20;;;;;;5041953;28;20102;-64
2021/09/29 04:53:27;;;;;;;11.98;4.07;;;13.20;97.40;;;;;;5045819;28;20033;-64
2021/09/29 04:55:53;;;;;;;6.80;3.30;;;13.20;97.50;;;;;;5040108;28;20410;-64
2021/09/29 04:58:18;;;;;;;8.30;4.43;;;13.20;97.70;;;;;;5045837;28;20108;-63
2021/09/29 05:00:44;;;;;;;11.18;3.75;;;13.20;97.90;;;;;;5035680;28;20037;-63
2021/09/29 05:03:10;;;;;;;8.73;3.65;;;13.10;98.10;;;;;;5039532;28;20389;-64
2021/09/29 05:05:36;;;;;;;8.48;2.95;;;13.10;98.30;;;;;;5043024;28;20394;-63
2021/09/29 05:08:06;;;;;;;6.70;3.95;;;13.10;98.50;;;;;;5043253;28;20032;-64
2021/09/29 05:10:40;;;;;;;8.32;3.92;;;13.00;98.60;;;;;;5037111;28;20017;-63
2021/09/29 05:13:11;;;;;;;6.55;3.50;;;13.00;98.80;;;;;;5041238;28;20026;-63
2021/09/29 05:15:36;;;;;;;5.60;3.88;;;13.00;99.00;;;;;;5038398;28;20032;-64
2021/09/29 05:18:02;;;;;;;8.77;3.20;;;12.90;99.00;;;;;;5042591;28;20024;-64
2021/09/29 05:20:27;;;;;;;9.07;4.38;;;12.90;99.20;;;;;;5037096;28;20025;-64
2021/09/29 05:22:53;;;;;;;9.95;3.70;;;12.90;99.50;;;;;;5033011;28;20087;-64
2021/09/29 05:25:18;;;;;;;8.73;4.25;;;12.90;99.70;;;;;;5034707;28;20030;-64
2021/09/29 05:27:44;;;;;;;9.25;4.22;;;12.80;99.80;;;;;;5049662;28;20524;-64
2021/09/29 05:30:10;;;;;;;7.60;4.10;;;12.80;99.80;;;;;;5041108;28;20388;-63
2021/09/29 05:32:35;;;;;;;6.97;3.92;;;12.80;99.90;;;;;;5038416;28;20101;-64
2021/09/29 05:35:01;;;;;;;11.38;4.43;;;12.80;99.90;;;;;;5033829;28;20057;-64
2021/09/29 05:37:26;;;;;;;7.68;3.58;;;12.80;99.90;;;;;;5042588;28;20061;-63
2021/09/29 05:39:52;;;;;;;8.90;4.30;;;12.80;99.90;;;;;;5046257;28;20033;-63
2021/09/29 05:42:17;;;;;;;7.50;4.68;;;12.80;99.90;;;;;;5038112;28;20087;-63
2021/09/29 05:44:43;;;;;;;9.27;4.13;;;12.80;99.90;;;;;;5051722;28;20380;-64
2021/09/29 05:47:09;;;;;;;7.88;3.88;;;12.80;99.90;;;;;;5038781;28;20585;-64
2021/09/29 05:49:35;;;;;;;8.88;3.80;;;12.80;99.90;;;;;;5050885;28;20068;-63
2021/09/29 05:52:00;;;;;;;8.32;4.15;;;12.80;99.90;;;;;;5052776;28;20388;-64
2021/09/29 05:54:26;;;;;;;7.65;3.95;;;12.70;99.90;;;;;;5050458;28;20481;-64
2021/09/29 05:56:51;;;;;;;7.45;4.25;;;12.70;99.90;;;;;;5042653;28;20057;-63
2021/09/29 05:59:17;;;;;;;6.55;3.75;;;12.70;99.90;;;;;;5046636;28;20025;-64
2021/09/29 06:01:43;;;;;;;8.15;4.43;;;12.80;99.90;;;;;;5039197;28;20104;-63
2021/09/29 06:04:11;;;;;;;7.65;3.75;;;12.70;99.90;;;;;;5051309;28;20029;-63
2021/09/29 06:06:37;;;;;;;9.25;3.70;;;12.70;99.90;;;;;;5052248;28;20538;-63
2021/09/29 06:09:02;;;;;;;6.50;3.45;;;12.70;99.90;;;;;;5041728;28;20025;-64
2021/09/29 06:11:28;;;;;;;9.27;4.35;;;12.70;99.90;;;;;;5034714;28;20025;-63
2021/09/29 06:13:53;;;;;;;10.50;3.50;;;12.70;99.90;;;;;;5052262;28;20052;-63
2021/09/29 06:16:19;;;;;;;5.40;3.30;;;12.70;99.90;;;;;;5048356;28;20020;-64
2021/09/29 06:18:48;;;;;;;8.05;3.70;;;12.70;99.90;;;;;;5036183;28;20029;-64
2021/09/29 06:21:16;;;;;;;6.68;3.75;;;12.60;99.90;;;;;;5038556;28;20049;-64
2021/09/29 06:23:41;;;;;;;8.15;3.75;;;12.60;99.90;;;;;;5050138;28;20029;-64
2021/09/29 06:26:07;;;;;;;7.03;4.03;;;12.50;99.90;;;;;;5049041;28;20025;-64
2021/09/29 06:28:34;;;;;;;8.32;3.78;;;12.50;99.90;;;;;;5032705;28;20052;-63
2021/09/29 06:31:00;;;;;;;6.30;3.63;;;12.50;99.90;;;;;;5047942;28;20115;-64
2021/09/29 06:33:26;;;;;;;9.93;3.53;;;12.60;99.90;;;;;;5044846;28;20033;-64
2021/09/29 06:35:52;;;;;;;9.25;3.50;;;12.60;99.90;;;;;;5037826;28;20570;-63
2021/09/29 06:38:18;;;;;;;7.63;3.15;;;12.60;99.90;;;;;;5052719;28;20087;-63
2021/09/29 06:40:43;;;;;;;8.07;3.17;;;12.60;99.90;;;;;;5050970;28;20036;-63
2021/09/29 06:43:09;;;;;;;7.40;3.72;;;12.70;99.90;;;;;;5050938;28;20053;-63
2021/09/29 06:45:35;;;;;;;4.43;2.95;;;12.70;99.90;;;;;;5048505;28;20029;-63
2021/09/29 06:48:00;;;;;;;8.38;3.53;;;12.70;99.90;;;;;;5040658;28;20067;-63
2021/09/29 06:50:26;;;;;;;7.53;3.00;;;12.70;99.90;;;;;;5045858;28;20061;-63
2021/09/29 06:52:52;;;;;;;6.35;3.00;;;12.70;99.90;;;;;;5045610;28;20078;-64
2021/09/29 06:55:17;;;;;;;7.18;3.10;;;12.80;99.90;;;;;;5047396;28;20025;-63
2021/09/29 06:57:43;;;;;;;6.85;3.13;;;12.80;99.90;;;;;;5048398;28;20017;-64
2021/09/29 07:00:09;;;;;;;7.13;3.00;;;12.80;99.90;;;;;;5047686;28;20037;-63
2021/09/29 07:02:42;;;;;;;6.63;3.00;;;12.80;99.90;;;;;;5045396;28;20025;-64
2021/09/29 07:05:08;;;;;;;3.60;2.42;;;12.80;99.90;;;;;;5042348;28;20024;-64
2021/09/29 07:07:34;;;;;;;7.32;3.08;;;12.80;99.90;;;;;;5066266;28;20020;-64
2021/09/29 07:10:00;;;;;;;5.82;3.00;;;12.80;99.90;;;;;;5071953;28;20013;-64
2021/09/29 07:12:26;;;;;;;6.78;3.45;;;12.80;99.90;;;;;;5049767;28;20040;-64
2021/09/29 07:14:51;;;;;;;4.65;2.53;;;12.80;99.90;;;;;;5050777;28;20028;-64
2021/09/29 07:17:17;;;;;;;6.45;2.55;;;12.80;99.90;;;;;;5039718;28;20033;-64
2021/09/29 07:19:42;;;;;;;6.95;2.85;;;12.80;99.90;;;;;;5041981;28;20424;-64
2021/09/29 07:22:08;;;;;;;8.65;2.88;;;12.80;99.90;;;;;;5036684;28;20048;-64
2021/09/29 07:24:33;;;;;;;7.88;2.70;;;12.80;99.90;;;;;;5044542;28;20025;-64
2021/09/29 07:26:59;;;;;;;6.57;2.65;;;12.80;99.90;;;;;;5047986;28;20477;-64
2021/09/29 07:29:24;;;;;;;5.95;2.50;;;12.80;99.90;;;;;;5038243;28;20086;-64
2021/09/29 07:31:50;;;;;;;8.82;3.38;;;12.80;99.90;;;;;;5032882;28;20119;-64
2021/09/29 07:34:15;;;;;;;6.57;2.67;;;12.80;99.90;;;;;;5046897;28;20087;-63
2021/09/29 07:36:41;;;;;;;6.35;2.80;;;12.80;99.90;;;;;;5044537;28;20030;-63
2021/09/29 07:39:07;;;;;;;7.68;2.80;;;12.80;99.90;;;;;;5044782;28;20029;-64
2021/09/29 07:41:33;;;;;;;6.47;3.03;;;12.80;99.90;;;;;;5041686;28;20029;-63
2021/09/29 07:43:59;;;;;;;7.60;2.92;;;12.80;99.90;;;;;;5051303;28;20053;-63
2021/09/29 07:46:24;;;;;;;5.55;2.97;;;12.80;99.90;;;;;;5047525;28;20493;-63
2021/09/29 07:48:50;;;;;;;4.75;3.45;;;12.80;99.90;;;;;;5045865;28;20013;-63
2021/09/29 07:51:18;;;;;;;5.80;3.20;;;12.80;99.90;;;;;;5042552;28;20036;-64
2021/09/29 07:53:44;;;;;;;7.43;3.55;;;12.80;99.90;;;;;;5034206;28;20025;-63
2021/09/29 07:56:09;;;;;;;6.13;3.30;;;12.80;99.90;;;;;;5045441;28;20022;-64
2021/09/29 07:58:35;;;;;;;7.00;3.47;;;12.80;99.90;;;;;;5044139;28;20079;-64
2021/09/29 08:01:01;;;;;;;3.95;3.03;;;12.80;99.90;;;;;;5045344;28;20477;-63
2021/09/29 08:03:27;;;;;;;5.15;3.15;;;12.80;99.90;;;;;;5048731;28;20024;-64
2021/09/29 08:05:56;;;;;;;9.38;3.95;;;12.90;99.90;;;;;;5045574;28;20496;-64
2021/09/29 08:08:22;;;;;;;5.32;3.80;;;12.90;99.90;;;;;;5043245;28;20017;-64
2021/09/29 08:10:47;;;;;;;4.82;3.10;;;12.90;99.90;;;;;;5044095;28;20024;-63
2021/09/29 08:13:13;;;;;;;6.60;2.97;;;13.00;99.90;;;;;;5044915;28;20029;-64
2021/09/29 08:15:38;;;;;;;4.53;2.95;;;13.00;99.90;;;;;;5051748;28;20380;-64
2021/09/29 08:18:04;;;;;;;4.32;3.38;;;13.10;99.90;;;;;;5047844;28;20484;-64
2021/09/29 08:20:34;;;;;;;7.55;3.60;;;13.10;99.90;;;;;;5048044;28;20028;-64
2021/09/29 08:23:25;;;;;;;6.20;3.35;;;13.20;99.90;;;;;;5044862;28;20026;-64
2021/09/29 08:28:35;;;;;;;5.72;3.10;;;13.30;99.90;;;;;;5047837;28;20469;-64
2021/09/29 08:33:52;;;;;;;6.70;4.07;;;13.30;99.90;;;;;;5054258;28;20063;-64
2021/09/29 08:36:25;;;;;;;4.07;3.60;;;13.40;99.90;;;;;;5054346;28;20070;-64
2021/09/29 08:39:05;;;;;;;4.38;3.97;;;13.50;99.90;;;;;;5032668;28;20036;-64
2021/09/29 08:41:47;;;;;;;5.88;3.67;;;13.50;99.90;;;;;;5044314;28;20024;-64
2021/09/29 08:44:26;;;;;;;8.13;3.97;;;13.50;99.90;;;;;;5048040;28;20033;-64
2021/09/29 08:49:40;;;;;;;4.93;4.20;;;13.60;99.90;;;;;;5052185;28;20440;-64
2021/09/29 08:55:11;;;;;;;4.78;3.78;;;13.60;99.90;;;;;;5053192;28;20036;-64
2021/09/29 09:16:58;;;;;;;2.28;1.73;;;13.70;99.50;;;;;;5046931;28;20104;-64
2021/09/29 09:19:29;;;;;;;1.92;1.73;;;13.60;99.40;;;;;;5053239;28;20104;-64
2021/09/29 09:22:04;;;;;;;2.95;1.83;;;13.60;99.40;;;;;;5053596;28;20028;-64
2021/09/29 09:24:36;;;;;;;2.05;1.27;;;13.60;99.30;;;;;;5051750;28;20075;-64
2021/09/29 09:27:08;;;;;;;2.95;2.15;;;13.60;99.40;;;;;;5041234;28;20545;-64
2021/09/29 09:30:03;;;;;;;2.60;1.30;;;13.50;99.40;;;;;;5051169;28;20017;-64
2021/09/29 09:32:41;;;;;;;2.60;1.90;;;13.50;99.30;;;;;;5044832;28;20034;-64
2021/09/29 09:35:09;;;;;;;1.40;1.27;;;13.50;99.40;;;;;;5038970;28;20104;-63
2021/09/29 09:37:38;;;;;;;2.83;1.50;;;13.40;99.40;;;;;;5052133;28;20123;-64
2021/09/29 09:40:11;;;;;;;2.20;1.45;;;13.50;99.50;;;;;;5052798;28;20024;-64
2021/09/29 09:42:42;;;;;;;5.18;1.75;;;13.40;99.40;;;;;;5044318;28;20045;-63
2021/09/29 09:45:08;;;;;;;3.55;1.88;;;13.40;99.40;;;;;;5046863;28;20017;-63
2021/09/29 09:47:44;;;;;;;3.08;1.90;;;13.30;99.50;;;;;;5047784;28;20424;-64
2021/09/29 09:50:11;;;;;;;2.70;1.52;;;13.30;99.50;;;;;;5046924;28;20494;-64
2021/09/29 09:52:45;;;;;;;2.13;1.25;;;13.30;99.60;;;;;;5047509;28;20037;-63
2021/09/29 09:55:14;;;;;;;2.55;1.38;;;13.30;99.70;;;;;;5048920;28;20052;-64
2021/09/29 09:57:41;;;;;;;1.52;1.33;;;13.30;99.80;;;;;;5051149;28;20082;-64
2021/09/29 10:00:09;;;;;;;3.05;1.40;;;13.20;99.80;;;;;;5051584;28;20113;-64
2021/09/29 10:02:43;;;;;;;2.47;1.00;;;13.20;99.70;;;;;;5037933;28;20026;-63
2021/09/29 10:05:11;;;;;;;2.42;1.70;;;13.20;99.70;;;;;;5050752;28;20219;-63
2021/09/29 10:07:37;;;;;;;1.83;1.10;;;13.20;99.70;;;;;;5052636;28;20380;-64
2021/09/29 10:26:30;;;;;;;3.35;1.30;;;13.10;99.90;;;;;;5039378;28;20016;-63
2021/09/29 10:29:07;;;;;;;3.30;1.00;;;13.00;99.90;;;;;;5052492;28;20152;-64
2021/09/29 10:34:26;;;;;;;1.48;0.60;;;13.00;99.90;;;;;;5032945;28;20021;-64
2021/09/29 10:48:05;;;;;;;2.63;0.80;;;12.90;99.60;;;;;;5047738;28;20033;-64
2021/09/29 11:10:12;;;;;;;1.70;0.77;;;12.70;99.80;;;;;;5052674;28;20028;-64
2021/09/29 11:31:34;;;;;;;1.00;0.80;;;12.70;99.30;;;;;;5050304;28;20105;-64
2021/09/29 11:34:04;;;;;;;1.20;0.77;;;12.70;99.20;;;;;;5047931;28;20036;-64
2021/09/29 12:12:21;;;;;;;1.33;0.73;;;19.30;93.20;;;;;;5054266;28;20025;-64
2021/09/29 12:14:59;;;;;;;2.72;0.70;;;20.90;88.10;;;;;;5054865;28;20440;-64
2021/09/29 12:17:28;;;;;;;2.20;0.70;;;22.10;83.00;;;;;;5054551;28;20020;-64
2021/09/29 12:20:11;;;;;;;2.92;0.70;;;22.70;79.00;;;;;;5054355;28;20468;-64
2021/09/29 12:22:46;;;;;;;2.85;0.73;;;23.30;76.50;;;;;;5041438;28;20025;-64
2021/09/29 12:25:21;;;;;;;2.05;0.60;;;22.90;75.30;;;;;;5050823;28;20158;-64
2021/09/29 12:30:42;;;;;;;3.80;0.98;;;21.00;76.10;;;;;;5054541;28;20536;-64
2021/09/29 12:35:54;;;;;;;3.97;0.45;;;19.10;80.40;;;;;;5048850;28;20587;-64
2021/09/29 12:38:21;;;;;;;2.97;0.50;;;18.10;77.60;;;;;;5040626;28;20480;-64
2021/09/29 12:40:50;;;;;;;2.47;0.50;;;17.40;80.80;;;;;;5053896;28;20491;-64
2021/09/29 12:43:21;;;;;;;3.30;0.60;;;17.10;82.80;;;;;;5035497;28;20497;-64
2021/09/29 12:45:49;;;;;;;2.45;0.60;;;16.80;83.10;;;;;;5038735;28;20104;-64
2021/09/29 12:48:17;;;;;;;3.15;0.60;;;16.60;84.20;;;;;;5042432;28;20013;-64
2021/09/29 12:50:58;;;;;;;1.90;0.50;;;16.40;85.00;;;;;;5047388;28;20021;-64
2021/09/29 12:53:31;;;;;;;1.33;0.40;;;16.30;84.60;;;;;;5049365;28;20020;-64
2021/09/29 12:56:06;;;;;;;3.72;0.57;;;16.50;85.00;;;;;;5034304;28;20030;-64
2021/09/29 12:58:33;;;;;;;3.65;0.60;;;16.50;84.20;;;;;;5052297;28;20025;-64
2021/09/29 13:01:00;;;;;;;2.13;0.45;;;16.70;83.80;;;;;;5053115;28;20033;-64
2021/09/29 13:03:26;;;;;;;1.73;0.60;;;16.90;83.50;;;;;;5053536;28;20448;-65
2021/09/29 13:05:54;;;;;;;1.35;0.40;;;17.20;82.80;;;;;;5053556;28;20025;-64
2021/09/29 13:08:20;;;;;;;1.92;0.40;;;17.40;81.70;;;;;;5053571;28;20013;-64
2021/09/29 13:10:46;;;;;;;2.92;0.50;;;17.80;81.40;;;;;;5042552;28;20025;-65
2021/09/29 13:13:12;;;;;;;2.22;0.40;;;18.50;80.80;;;;;;5046842;28;20025;-65
2021/09/29 13:15:43;;;;;;;2.22;0.60;;;19.30;78.90;;;;;;5051888;28;20078;-64
2021/09/29 13:23:42;;;;;;;1.98;0.50;;;21.30;74.30;;;;;;5047106;28;20481;-65
2021/09/29 13:35:11;;;;;;;2.28;1.10;;;22.80;70.50;;;;;;5053700;28;20029;-65
2021/09/29 13:36:53;;;;;;;1.50;0.30;;;21.60;63.30;;;;;;5053554;28;20028;-65
2021/09/29 13:39:20;;;;;;;2.47;0.50;;;20.90;65.00;;;;;;5053236;28;20036;-65
2021/09/29 13:41:48;;;;;;;3.30;0.43;;;20.40;65.60;;;;;;5037778;28;20087;-64
2021/09/29 13:44:14;;;;;;;3.08;0.73;;;20.00;65.90;;;;;;5035480;28;20041;-65
2021/09/29 13:46:40;;;;;;;1.92;0.40;;;19.60;66.60;;;;;;5037628;28;20021;-64
2021/09/29 13:49:08;;;;;;;1.08;0.20;;;20.00;68.00;;;;;;5038364;28;20021;-64
2021/09/29 13:51:35;;;;;;;1.60;0.40;;;20.60;66.40;;;;;;5052576;28;20111;-65
2021/09/29 13:54:07;;;;;;;4.22;0.80;;;21.00;64.20;;;;;;5045753;28;20021;-64
2021/09/29 13:56:45;;;;;;;2.00;0.45;;;21.50;64.20;;;;;;5046018;28;20147;-65
2021/09/29 14:34:10;;;;;;;2.13;0.40;;;20.20;60.80;;;;;;5052569;28;20028;-64
2021/09/29 14:36:35;;;;;;;1.13;0.30;;;20.50;60.00;;;;;;5051854;28;20027;-64
2021/09/29 14:39:01;;;;;;;1.05;0.30;;;20.80;59.80;;;;;;5040622;28;20029;-64
2021/09/29 14:41:27;;;;;;;2.05;0.47;;;21.00;59.60;;;;;;5049883;28;20075;-64
2021/09/29 14:43:54;;;;;;;1.70;0.40;;;20.80;59.90;;;;;;5052040;28;20045;-64
2021/09/29 14:46:19;;;;;;;2.42;0.40;;;20.50;59.90;;;;;;5038237;28;20040;-64
2021/09/29 14:48:45;;;;;;;1.20;0.40;;;20.20;60.50;;;;;;5052183;28;20028;-64
2021/09/29 14:51:10;;;;;;;3.03;0.80;;;20.20;61.40;;;;;;5052459;28;20513;-64
2021/09/29 14:53:38;;;;;;;0.82;0.32;;;20.50;61.50;;;;;;5043833;28;20061;-64
2021/09/29 14:56:06;;;;;;;1.65;0.40;;;20.70;61.10;;;;;;5052210;28;20036;-64
2021/09/29 14:58:33;;;;;;;2.33;0.40;;;20.40;60.90;;;;;;5051804;28;20029;-63
2021/09/29 15:00:58;;;;;;;1.10;0.38;;;20.00;61.60;;;;;;5052376;28;20021;-63
2021/09/29 15:03:24;;;;;;;1.75;0.40;;;19.80;62.60;;;;;;5051516;28;20025;-63
2021/09/29 15:05:50;;;;;;;2.20;0.40;;;19.50;62.80;;;;;;5043506;28;20021;-63
2021/09/29 15:08:17;;;;;;;1.17;0.40;;;19.20;63.20;;;;;;5031069;28;20366;-63
2021/09/29 15:10:42;;;;;;;2.55;0.43;;;19.00;64.10;;;;;;5036159;28;20017;-64
2021/09/29 15:13:11;;;;;;;1.67;0.40;;;18.50;64.50;;;;;;5037918;28;20028;-63
2021/09/29 15:15:45;;;;;;;3.73;0.50;;;18.30;65.60;;;;;;5049688;28;20017;-64
2021/09/29 15:18:12;;;;;;;2.08;0.55;;;18.10;66.50;;;;;;5047355;28;20275;-63
2021/09/29 15:47:29;;;;;;;1.67;0.20;;;18.30;67.40;;;;;;5046725;28;20067;-63
2021/09/29 15:50:07;;;;;;;1.92;0.38;;;18.30;67.30;;;;;;5054480;28;20031;-63
2021/09/29 15:52:50;;;;;;;0.75;0.20;;;18.20;66.50;;;;;;5054267;28;20021;-63
2021/09/29 15:55:36;;;;;;;3.67;0.40;;;18.00;66.50;;;;;;5055385;28;20021;-63
2021/09/29 16:01:01;;;;;;;1.55;0.30;;;17.50;67.00;;;;;;5055410;28;20034;-63
2021/09/29 16:18:50;;;;;;;1.48;0.30;;;16.40;70.90;;;;;;5049700;28;20029;-63
2021/09/29 16:21:39;;;;;;;2.42;0.30;;;16.30;71.00;;;;;;5053408;28;20439;-64
2021/09/29 16:32:29;;;;;;;1.58;0.20;;;15.80;70.60;;;;;;5042318;28;20500;-63
2021/09/29 16:35:02;;;;;;;1.40;0.30;;;15.60;71.00;;;;;;5034744;28;20022;-63
2021/09/29 16:37:28;;;;;;;1.85;0.28;;;15.60;71.60;;;;;;5043485;28;20021;-63
2021/09/29 16:39:54;;;;;;;1.05;0.20;;;15.60;71.70;;;;;;5050488;28;20060;-63
2021/09/29 16:42:20;;;;;;;0.57;0.20;;;15.60;71.90;;;;;;5054025;28;20433;-63
2021/09/29 16:44:46;;;;;;;0.70;0.20;;;15.50;71.90;;;;;;5048391;28;20520;-64
2021/09/29 16:47:12;;;;;;;1.33;0.20;;;15.50;72.00;;;;;;5045869;28;20099;-63
2021/09/29 16:49:39;;;;;;;2.00;0.20;;;15.40;72.60;;;;;;5050071;28;20025;-63
2021/09/29 16:54:31;;;;;;;0.68;0.20;;;15.30;74.00;;;;;;5052680;28;20024;-63